Time;durP1;ratioP1;P1;durP2;ratioP2;P2;SDS_P1;SDS_P2;PMS_P1;PMS_P2;Temp;Humidity;BMP_temperature;BMP_pressure;BME280_temperature;BME280_humidity;BME280_pressure;Samples;Min_cycle;Max_cycle;Signal;HPM_P1;HPM_P2
2022/10/09 00:00:38;;;;;;;15.27;5.47;;;8.80;99.90;;;;;;5104574;27;20041;-84
2022/10/09 00:03:04;;;;;;;9.00;4.68;;;8.80;99.90;;;;;;5121184;27;20066;-84
2022/10/09 00:05:30;;;;;;;13.02;4.68;;;8.70;99.90;;;;;;5112163;27;20031;-84
2022/10/09 00:07:55;;;;;;;9.18;4.57;;;8.70;99.90;;;;;;5138855;27;20064;-84
2022/10/09 00:10:22;;;;;;;13.02;4.53;;;8.70;99.90;;;;;;5119244;27;20491;-84
2022/10/09 00:12:47;;;;;;;14.23;5.38;;;8.70;99.90;;;;;;5131733;27;20042;-83
2022/10/09 00:15:13;;;;;;;12.50;4.90;;;8.60;99.90;;;;;;5154297;27;20589;-84
2022/10/09 00:17:39;;;;;;;10.32;4.90;;;8.60;99.90;;;;;;5153927;27;20035;-84
2022/10/09 00:20:05;;;;;;;9.30;4.88;;;8.60;99.90;;;;;;5121163;27;20029;-84
2022/10/09 00:22:31;;;;;;;12.15;4.60;;;8.60;99.90;;;;;;5151969;27;20031;-84
2022/10/09 00:24:57;;;;;;;10.15;4.63;;;8.60;99.90;;;;;;5120842;27;20084;-84
2022/10/09 00:27:23;;;;;;;11.95;5.32;;;8.60;99.90;;;;;;5136199;27;20125;-84
2022/10/09 00:29:50;;;;;;;10.52;5.22;;;8.60;99.90;;;;;;5138626;27;20046;-84
2022/10/09 00:32:16;;;;;;;9.98;5.00;;;8.60;99.90;;;;;;5154855;27;20057;-82
2022/10/09 00:34:42;;;;;;;10.75;4.60;;;8.60;99.90;;;;;;5138150;27;20039;-84
2022/10/09 00:37:08;;;;;;;10.65;4.57;;;8.50;99.90;;;;;;5145883;27;20039;-83
2022/10/09 00:39:34;;;;;;;10.90;4.95;;;8.50;99.90;;;;;;5132745;27;20032;-83
2022/10/09 00:42:01;;;;;;;10.10;4.78;;;9.00;99.90;;;;;;5150009;27;20043;-83
2022/10/09 00:44:48;;;;;;;10.57;5.03;;;8.50;99.90;;;;;;5137821;27;20034;-84
2022/10/09 00:47:41;;;;;;;14.10;4.93;;;8.40;99.90;;;;;;5137085;27;20180;-84
2022/10/09 00:50:23;;;;;;;10.45;4.82;;;8.40;99.90;;;;;;5136739;27;20486;-85
2022/10/09 00:52:54;;;;;;;10.20;4.93;;;8.40;99.90;;;;;;5137631;27;20099;-83
2022/10/09 00:55:21;;;;;;;8.55;4.72;;;8.30;99.90;;;;;;5135137;27;20071;-83
2022/10/09 00:57:48;;;;;;;10.68;5.30;;;8.30;99.90;;;;;;5137105;27;20057;-83
2022/10/09 01:00:16;;;;;;;12.80;5.68;;;8.30;99.90;;;;;;5153129;27;20077;-83
2022/10/09 01:02:41;;;;;;;11.52;5.28;;;8.20;99.90;;;;;;5132601;28;20118;-83
2022/10/09 01:05:09;;;;;;;10.18;4.93;;;8.20;99.90;;;;;;5149713;27;20530;-83
2022/10/09 01:07:45;;;;;;;10.70;5.10;;;8.20;99.90;;;;;;5105272;27;20039;-83
2022/10/09 01:10:32;;;;;;;;;;;8.20;99.90;;;;;;5139729;27;20042;-83
2022/10/09 01:13:26;;;;;;;10.57;5.18;;;8.20;99.90;;;;;;5139195;27;19915;-82
2022/10/09 01:16:03;;;;;;;10.93;4.80;;;8.70;99.90;;;;;;5151295;27;20034;-83
2022/10/09 01:19:00;;;;;;;8.18;4.95;;;8.50;99.90;;;;;;5149940;27;20043;-84
2022/10/09 01:21:48;;;;;;;10.70;4.80;;;8.10;99.90;;;;;;5141799;27;20038;-83
2022/10/09 01:24:25;;;;;;;8.80;4.45;;;8.20;99.90;;;;;;5152154;27;20035;-83
2022/10/09 01:27:18;;;;;;;11.40;5.05;;;8.00;99.90;;;;;;5137993;27;20046;-83
2022/10/09 01:29:48;;;;;;;13.23;5.05;;;8.00;99.90;;;;;;5149925;27;20050;-83
2022/10/09 01:32:23;;;;;;;8.32;4.60;;;7.90;99.90;;;;;;5136159;27;20046;-83
2022/10/09 01:34:50;;;;;;;14.48;5.15;;;7.90;99.90;;;;;;5147368;27;20043;-83
2022/10/09 01:37:19;;;;;;;11.13;4.32;;;7.90;99.90;;;;;;5119848;27;20070;-83
2022/10/09 01:39:46;;;;;;;8.57;4.40;;;7.90;99.90;;;;;;5135641;27;20031;-83
2022/10/09 01:42:14;;;;;;;10.20;4.75;;;7.90;99.90;;;;;;5133847;27;20122;-83
2022/10/09 01:44:40;;;;;;;8.20;4.45;;;7.90;99.90;;;;;;5135447;27;20510;-83
2022/10/09 01:47:09;;;;;;;9.90;4.30;;;8.40;99.90;;;;;;5137230;27;20113;-83
2022/10/09 01:49:51;;;;;;;11.95;4.20;;;7.80;99.90;;;;;;5159062;27;20092;-83
2022/10/09 01:52:20;;;;;;;8.73;4.03;;;7.80;99.90;;;;;;5132460;27;20054;-83
2022/10/09 01:55:24;;;;;;;11.77;4.72;;;7.80;99.90;;;;;;5137443;27;20103;-83
2022/10/09 01:57:59;;;;;;;8.98;4.15;;;7.80;99.90;;;;;;5158526;27;20043;-83
2022/10/09 02:00:25;;;;;;;11.30;4.45;;;7.70;99.90;;;;;;5141710;27;20579;-83
2022/10/09 02:02:53;;;;;;;9.60;4.40;;;7.70;99.90;;;;;;5103726;27;20031;-83
2022/10/09 02:05:24;;;;;;;11.40;4.57;;;7.70;99.90;;;;;;5131195;27;20074;-83
2022/10/09 02:07:50;;;;;;;8.63;4.30;;;7.60;99.90;;;;;;5142188;27;20084;-83
2022/10/09 02:10:19;;;;;;;8.52;4.30;;;8.20;99.90;;;;;;5141866;27;20050;-83
2022/10/09 02:12:50;;;;;;;9.52;4.13;;;7.60;99.90;;;;;;5134905;27;20034;-83
2022/10/09 02:15:16;;;;;;;8.52;4.15;;;7.60;99.90;;;;;;5149613;27;20038;-83
2022/10/09 02:17:48;;;;;;;8.13;4.10;;;7.60;99.90;;;;;;5140149;27;20046;-83
2022/10/09 02:20:26;;;;;;;10.73;4.25;;;7.60;99.90;;;;;;5154889;27;20038;-83
2022/10/09 02:22:54;;;;;;;10.07;4.13;;;7.60;99.90;;;;;;5137562;27;20087;-83
2022/10/09 02:25:20;;;;;;;9.30;4.10;;;7.60;99.90;;;;;;5140624;27;20042;-83
2022/10/09 02:27:46;;;;;;;10.38;4.40;;;7.50;99.90;;;;;;5155716;27;20046;-83
2022/10/09 02:30:13;;;;;;;10.43;4.45;;;8.20;99.90;;;;;;5136989;27;20043;-83
2022/10/09 02:32:39;;;;;;;8.07;4.03;;;7.50;99.90;;;;;;5158128;27;20516;-83
2022/10/09 02:35:05;;;;;;;10.00;4.30;;;7.50;99.90;;;;;;5119259;27;20126;-83
2022/10/09 02:37:32;;;;;;;8.48;4.20;;;7.40;99.90;;;;;;5139715;27;20118;-83
2022/10/09 02:39:58;;;;;;;7.63;4.22;;;7.40;99.90;;;;;;5141108;27;20042;-83
2022/10/09 02:42:24;;;;;;;9.70;4.53;;;8.00;99.90;;;;;;5155991;27;20031;-84
2022/10/09 02:44:51;;;;;;;9.55;4.63;;;7.40;99.90;;;;;;5132268;27;20038;-83
2022/10/09 02:47:17;;;;;;;8.48;4.30;;;7.40;99.90;;;;;;5132250;27;20464;-84
2022/10/09 02:49:43;;;;;;;10.27;4.35;;;7.40;99.90;;;;;;5137030;27;20038;-84
2022/10/09 02:52:08;;;;;;;8.02;4.10;;;7.40;99.90;;;;;;5139464;27;20061;-84
2022/10/09 02:54:34;;;;;;;9.32;4.85;;;7.40;99.90;;;;;;5118854;27;20475;-83
2022/10/09 02:57:00;;;;;;;8.00;3.83;;;7.50;99.90;;;;;;5136511;27;20129;-83
2022/10/09 02:59:25;;;;;;;7.88;4.05;;;7.40;99.90;;;;;;5139615;27;20059;-83
2022/10/09 03:01:51;;;;;;;11.85;4.35;;;8.40;99.90;;;;;;5107266;27;20030;-83
2022/10/09 03:04:17;;;;;;;7.28;4.20;;;7.70;99.90;;;;;;5150724;27;20511;-83
2022/10/09 03:06:43;;;;;;;9.95;3.75;;;7.30;99.90;;;;;;5140187;27;20042;-82
2022/10/09 03:09:08;;;;;;;9.52;3.90;;;7.60;99.90;;;;;;5160296;27;20043;-83
2022/10/09 03:11:34;;;;;;;9.35;4.40;;;7.30;99.90;;;;;;5145516;27;20031;-82
2022/10/09 03:14:00;;;;;;;8.65;4.45;;;7.40;99.90;;;;;;5151997;27;20038;-83
2022/10/09 03:16:26;;;;;;;11.48;4.70;;;8.00;99.90;;;;;;5145858;27;20402;-83
2022/10/09 03:18:52;;;;;;;13.30;4.47;;;7.20;99.90;;;;;;5140881;27;20130;-83
2022/10/09 03:21:21;;;;;;;6.07;4.00;;;7.80;99.90;;;;;;5140520;27;20124;-83
2022/10/09 03:23:47;;;;;;;7.45;4.18;;;7.20;99.90;;;;;;5151015;27;20048;-83
2022/10/09 03:26:15;;;;;;;8.88;4.47;;;7.10;99.90;;;;;;5164406;27;20058;-83
2022/10/09 03:28:47;;;;;;;12.23;4.15;;;7.10;99.90;;;;;;5156525;27;20068;-83
2022/10/09 03:31:17;;;;;;;9.00;4.32;;;7.20;99.90;;;;;;5142568;27;20043;-82
2022/10/09 03:33:43;;;;;;;12.77;4.20;;;7.10;99.90;;;;;;5151331;27;20070;-82
2022/10/09 03:36:10;;;;;;;8.18;4.22;;;7.10;99.90;;;;;;5123337;27;20401;-82
2022/10/09 03:38:35;;;;;;;8.52;4.25;;;7.10;99.90;;;;;;5154130;27;20042;-81
2022/10/09 03:41:03;;;;;;;5.80;4.15;;;7.10;99.90;;;;;;5156845;27;20045;-83
2022/10/09 03:43:28;;;;;;;5.93;4.25;;;7.30;99.90;;;;;;5131753;27;20478;-82
2022/10/09 03:45:55;;;;;;;7.38;4.10;;;7.10;99.90;;;;;;5120316;27;20042;-82
2022/10/09 03:48:20;;;;;;;10.50;4.45;;;7.10;99.90;;;;;;5140070;27;20582;-82
2022/10/09 03:50:46;;;;;;;10.73;4.22;;;7.10;99.90;;;;;;5157344;27;20078;-82
2022/10/09 03:53:12;;;;;;;5.97;3.83;;;7.00;99.90;;;;;;5119626;27;20069;-83
2022/10/09 03:55:38;;;;;;;6.97;4.00;;;7.00;99.90;;;;;;5137346;27;20038;-82
2022/10/09 03:58:04;;;;;;;8.05;4.15;;;7.00;99.90;;;;;;5129263;27;20047;-81
2022/10/09 04:00:31;;;;;;;7.80;4.38;;;7.00;99.90;;;;;;5137369;27;20042;-82
2022/10/09 04:02:56;;;;;;;10.15;4.65;;;7.00;99.90;;;;;;5137946;27;20750;-82
2022/10/09 04:05:22;;;;;;;6.38;4.05;;;7.00;99.90;;;;;;5130342;27;20062;-81
2022/10/09 04:07:48;;;;;;;8.88;4.20;;;7.00;99.90;;;;;;5135879;27;20118;-81
2022/10/09 04:10:14;;;;;;;10.40;4.25;;;7.00;99.90;;;;;;5139636;27;20045;-82
2022/10/09 04:12:40;;;;;;;10.35;4.50;;;7.00;99.90;;;;;;5138690;27;20038;-81
2022/10/09 04:15:06;;;;;;;11.75;4.40;;;7.00;99.90;;;;;;5139164;27;20042;-82
2022/10/09 04:17:32;;;;;;;9.80;4.75;;;7.00;99.90;;;;;;5138898;27;20035;-82
2022/10/09 04:19:58;;;;;;;7.20;4.70;;;7.00;99.90;;;;;;5139088;27;20111;-82
2022/10/09 04:22:23;;;;;;;8.65;4.75;;;6.90;99.90;;;;;;5134490;27;20027;-82
2022/10/09 04:24:49;;;;;;;9.52;4.53;;;7.00;99.90;;;;;;5120882;27;20475;-82
2022/10/09 04:27:15;;;;;;;6.90;4.55;;;7.00;99.90;;;;;;5121817;27;20038;-82
2022/10/09 04:29:41;;;;;;;8.85;4.38;;;6.90;99.90;;;;;;5116197;27;20060;-83
2022/10/09 04:32:06;;;;;;;7.15;4.35;;;6.90;99.90;;;;;;5138593;27;20076;-83
2022/10/09 04:34:32;;;;;;;5.47;4.10;;;6.90;99.90;;;;;;5139378;27;20034;-83
2022/10/09 04:36:58;;;;;;;8.88;4.50;;;6.90;99.90;;;;;;5113394;27;20108;-83
2022/10/09 04:39:24;;;;;;;11.98;4.65;;;7.40;99.90;;;;;;5122000;27;20049;-82
2022/10/09 04:41:49;;;;;;;8.73;4.78;;;6.80;99.90;;;;;;5132419;27;20058;-82
2022/10/09 04:44:15;;;;;;;7.95;4.95;;;6.80;99.90;;;;;;5151255;27;20468;-82
2022/10/09 04:46:41;;;;;;;8.55;4.90;;;6.80;99.90;;;;;;5139133;27;20506;-83
2022/10/09 04:49:11;;;;;;;5.95;4.43;;;7.80;99.90;;;;;;5138117;27;20490;-83
2022/10/09 04:51:37;;;;;;;9.65;4.82;;;6.80;99.90;;;;;;5154438;27;20042;-83
2022/10/09 04:54:02;;;;;;;6.97;4.60;;;8.00;99.90;;;;;;5134326;27;20039;-83
2022/10/09 04:56:28;;;;;;;13.20;5.15;;;6.80;99.90;;;;;;5134901;27;20047;-83
2022/10/09 04:58:54;;;;;;;8.23;5.13;;;6.90;99.90;;;;;;5153210;27;20070;-82
2022/10/09 05:01:23;;;;;;;8.70;4.63;;;6.70;99.90;;;;;;5126939;27;20043;-83
2022/10/09 05:03:49;;;;;;;8.88;5.20;;;6.70;99.90;;;;;;5150174;27;20039;-82
2022/10/09 05:06:16;;;;;;;7.65;5.63;;;6.70;99.90;;;;;;5151715;27;20034;-83
2022/10/09 05:08:41;;;;;;;13.50;5.43;;;6.70;99.90;;;;;;5150242;27;20038;-83
2022/10/09 05:11:13;;;;;;;8.82;4.80;;;6.70;99.90;;;;;;5135659;27;20490;-83
2022/10/09 05:13:41;;;;;;;10.18;5.63;;;6.60;99.90;;;;;;5151144;27;20043;-83
2022/10/09 05:16:13;;;;;;;11.32;5.57;;;6.60;99.90;;;;;;5143389;27;20038;-82
2022/10/09 05:18:49;;;;;;;8.63;5.85;;;6.60;99.90;;;;;;5157139;27;20096;-82
2022/10/09 05:21:15;;;;;;;9.02;5.68;;;6.60;99.90;;;;;;5147118;27;20038;-83
2022/10/09 05:23:41;;;;;;;12.35;5.57;;;6.60;99.90;;;;;;5142397;27;20534;-82
2022/10/09 05:26:11;;;;;;;13.88;6.00;;;6.50;99.90;;;;;;5158864;27;20494;-83
2022/10/09 05:28:37;;;;;;;8.52;6.03;;;6.70;99.90;;;;;;5158044;27;20034;-83
2022/10/09 05:31:04;;;;;;;9.00;5.68;;;6.50;99.90;;;;;;5123938;27;20134;-83
2022/10/09 05:33:30;;;;;;;15.20;6.13;;;6.50;99.90;;;;;;5156670;27;20505;-83
2022/10/09 05:36:01;;;;;;;8.88;5.57;;;6.50;99.90;;;;;;5142023;27;20034;-83
2022/10/09 05:38:27;;;;;;;10.48;5.82;;;6.50;99.90;;;;;;5136502;27;20031;-83
2022/10/09 05:40:55;;;;;;;10.40;5.43;;;6.40;99.90;;;;;;5159748;27;20069;-83
2022/10/09 05:43:33;;;;;;;10.48;5.22;;;7.00;99.90;;;;;;5158025;27;20486;-83
2022/10/09 05:46:12;;;;;;;6.97;4.90;;;6.60;99.90;;;;;;5148209;27;20114;-83
2022/10/09 05:48:40;;;;;;;9.45;5.15;;;6.40;99.90;;;;;;5143242;27;20083;-83
2022/10/09 05:51:15;;;;;;;9.00;5.55;;;6.40;99.90;;;;;;5143500;27;20046;-83
2022/10/09 05:53:42;;;;;;;9.38;5.22;;;6.30;99.90;;;;;;5143397;27;20042;-83
2022/10/09 05:56:11;;;;;;;10.55;5.22;;;6.30;99.90;;;;;;5125570;27;20035;-83
2022/10/09 05:58:37;;;;;;;9.70;5.22;;;6.30;99.90;;;;;;5141639;27;20102;-82
2022/10/09 06:01:03;;;;;;;7.25;5.18;;;6.30;99.90;;;;;;5141610;27;20046;-83
2022/10/09 06:03:28;;;;;;;8.38;4.97;;;6.30;99.90;;;;;;5152640;27;20031;-83
2022/10/09 06:06:05;;;;;;;7.55;5.28;;;6.30;99.90;;;;;;5177678;27;20011;-83
2022/10/09 06:08:32;;;;;;;10.00;5.40;;;6.20;99.90;;;;;;5152082;27;20128;-84
2022/10/09 06:11:06;;;;;;;8.73;4.82;;;6.20;99.90;;;;;;5156518;27;20039;-83
2022/10/09 06:13:32;;;;;;;7.28;5.00;;;6.20;99.90;;;;;;5154847;27;20052;-83
2022/10/09 06:15:58;;;;;;;8.45;5.07;;;6.20;99.90;;;;;;5144467;27;20582;-83
2022/10/09 06:18:23;;;;;;;6.40;4.72;;;6.20;99.90;;;;;;5138205;27;20082;-83
2022/10/09 06:20:57;;;;;;;9.63;5.45;;;6.20;99.90;;;;;;5160379;27;20050;-83
2022/10/09 06:23:23;;;;;;;11.13;5.57;;;6.50;99.90;;;;;;5141139;27;20038;-83
2022/10/09 06:25:57;;;;;;;9.00;4.97;;;6.20;99.90;;;;;;5159621;27;20031;-83
2022/10/09 06:28:23;;;;;;;6.40;4.70;;;6.30;99.90;;;;;;5125124;27;20071;-83
2022/10/09 06:30:49;;;;;;;9.13;5.03;;;6.20;99.90;;;;;;5138545;27;20038;-83
2022/10/09 06:33:15;;;;;;;9.40;5.47;;;6.40;99.90;;;;;;5145539;27;20027;-82
2022/10/09 06:35:41;;;;;;;7.93;5.25;;;6.30;99.90;;;;;;5149085;27;20035;-84
2022/10/09 06:38:07;;;;;;;8.95;5.95;;;7.10;99.90;;;;;;5159205;27;20057;-84
2022/10/09 06:40:37;;;;;;;11.88;5.78;;;6.40;99.90;;;;;;5138448;27;20027;-84
2022/10/09 06:43:03;;;;;;;7.85;5.57;;;6.40;99.90;;;;;;5124978;27;20038;-83
2022/10/09 06:45:30;;;;;;;12.98;5.63;;;6.40;99.90;;;;;;5133439;27;20043;-84
2022/10/09 06:47:56;;;;;;;9.43;5.47;;;6.70;99.90;;;;;;5157894;27;20023;-83
2022/10/09 06:50:22;;;;;;;10.85;5.72;;;6.50;99.90;;;;;;5140425;27;20379;-84
2022/10/09 06:52:48;;;;;;;12.20;5.78;;;6.50;99.90;;;;;;5124376;27;20179;-83
2022/10/09 06:55:14;;;;;;;8.85;5.90;;;6.60;99.90;;;;;;5141516;27;20372;-83
2022/10/09 06:57:40;;;;;;;12.35;6.45;;;6.60;99.90;;;;;;5122601;27;20083;-84
2022/10/09 07:00:06;;;;;;;11.15;5.93;;;6.60;99.90;;;;;;5120007;27;21532;-83
2022/10/09 07:02:32;;;;;;;9.82;6.10;;;6.70;99.90;;;;;;5124918;27;20038;-83
2022/10/09 07:04:58;;;;;;;10.43;6.43;;;6.70;99.90;;;;;;5137750;27;20548;-83
2022/10/09 07:07:24;;;;;;;12.88;6.32;;;7.70;99.90;;;;;;5142248;27;20034;-83
2022/10/09 07:09:51;;;;;;;11.48;6.50;;;6.80;99.90;;;;;;5120554;27;20042;-83
2022/10/09 07:12:17;;;;;;;9.85;6.30;;;7.00;99.90;;;;;;5121455;27;20035;-84
2022/10/09 07:14:43;;;;;;;10.18;6.28;;;6.90;99.90;;;;;;5119867;27;20042;-82
2022/10/09 07:17:08;;;;;;;12.43;7.18;;;7.00;99.90;;;;;;5103609;27;20159;-83
2022/10/09 07:19:34;;;;;;;12.60;6.88;;;7.10;99.90;;;;;;5121534;27;20116;-83
2022/10/09 07:22:00;;;;;;;10.77;7.25;;;7.10;99.90;;;;;;5153084;27;20530;-84
2022/10/09 07:24:26;;;;;;;10.80;6.82;;;7.10;99.90;;;;;;5157404;27;20132;-82
2022/10/09 07:26:54;;;;;;;12.88;6.70;;;7.20;99.90;;;;;;5121178;27;20428;-83
2022/10/09 07:29:20;;;;;;;13.77;7.13;;;7.30;99.90;;;;;;5138961;27;20134;-82
2022/10/09 07:31:46;;;;;;;11.88;6.95;;;7.80;99.90;;;;;;5152580;27;20453;-83
2022/10/09 07:34:12;;;;;;;12.68;6.82;;;7.30;99.90;;;;;;5137201;27;20478;-83
2022/10/09 07:36:38;;;;;;;10.73;6.72;;;7.30;99.90;;;;;;5117701;27;20046;-83
2022/10/09 07:39:04;;;;;;;10.52;7.10;;;8.40;99.90;;;;;;5155759;27;20438;-82
2022/10/09 07:41:30;;;;;;;10.85;6.97;;;7.40;99.90;;;;;;5136441;27;20087;-83
2022/10/09 07:43:56;;;;;;;13.65;7.43;;;7.50;99.90;;;;;;5129724;27;20470;-84
2022/10/09 07:46:24;;;;;;;14.30;7.07;;;7.50;99.90;;;;;;5132897;27;20127;-84
2022/10/09 07:48:50;;;;;;;13.57;7.28;;;7.60;99.90;;;;;;5140734;27;20083;-84
2022/10/09 07:51:23;;;;;;;11.35;7.50;;;7.60;99.90;;;;;;5157042;27;20134;-83
2022/10/09 07:53:49;;;;;;;16.90;8.07;;;7.70;99.90;;;;;;5135007;27;20069;-83
2022/10/09 07:56:20;;;;;;;13.05;7.63;;;7.70;99.90;;;;;;5155993;27;20126;-84
2022/10/09 07:58:51;;;;;;;13.10;7.18;;;7.80;99.90;;;;;;5153254;27;20070;-85
2022/10/09 08:01:18;;;;;;;10.55;7.32;;;7.80;99.90;;;;;;5135977;27;20049;-83
2022/10/09 08:03:45;;;;;;;13.57;7.95;;;8.30;99.90;;;;;;5118697;27;20032;-83
2022/10/09 08:06:11;;;;;;;14.05;8.48;;;8.00;99.90;;;;;;5156006;27;20390;-83
2022/10/09 08:08:36;;;;;;;14.85;8.13;;;8.10;99.90;;;;;;5139296;27;20026;-84
2022/10/09 08:11:13;;;;;;;14.65;8.13;;;8.20;99.90;;;;;;5129041;27;20114;-84
2022/10/09 08:13:40;;;;;;;16.20;8.55;;;8.30;99.90;;;;;;5137720;27;20034;-84
2022/10/09 08:16:06;;;;;;;14.40;8.50;;;8.40;99.90;;;;;;5132931;27;20035;-84
2022/10/09 08:18:32;;;;;;;20.80;7.90;;;8.50;99.90;;;;;;5144689;27;20039;-84
2022/10/09 08:20:59;;;;;;;12.40;7.07;;;8.60;99.90;;;;;;5133900;27;20051;-83
2022/10/09 08:23:25;;;;;;;12.32;7.32;;;8.70;99.90;;;;;;5152236;27;20479;-83
2022/10/09 08:25:51;;;;;;;14.85;8.38;;;8.70;99.90;;;;;;5154943;27;20050;-84
2022/10/09 08:28:17;;;;;;;13.52;7.75;;;8.70;99.90;;;;;;5137466;27;20159;-83
2022/10/09 08:30:43;;;;;;;18.02;8.60;;;8.80;99.90;;;;;;5105659;27;20046;-83
2022/10/09 08:33:09;;;;;;;12.90;7.45;;;8.90;99.90;;;;;;5124876;27;20062;-84
2022/10/09 08:35:34;;;;;;;11.55;7.93;;;8.90;99.90;;;;;;5137961;27;20039;-83
2022/10/09 08:38:00;;;;;;;15.80;8.18;;;9.00;99.90;;;;;;5102537;27;20039;-84
2022/10/09 08:40:50;;;;;;;14.73;7.53;;;9.10;99.90;;;;;;5103304;27;20046;-83
2022/10/09 08:43:19;;;;;;;13.52;7.57;;;9.20;99.90;;;;;;5133176;27;20045;-82
2022/10/09 08:45:47;;;;;;;14.20;7.45;;;9.40;99.90;;;;;;5138336;27;20547;-83
2022/10/09 08:48:22;;;;;;;12.45;6.85;;;9.40;99.90;;;;;;5154485;27;20031;-83
2022/10/09 08:50:52;;;;;;;16.08;7.32;;;9.50;99.90;;;;;;5137064;27;20061;-83
2022/10/09 08:53:41;;;;;;;17.35;7.28;;;9.50;99.90;;;;;;5158898;27;20504;-84
2022/10/09 08:56:13;;;;;;;17.70;7.07;;;9.70;99.90;;;;;;5140182;27;20049;-84
2022/10/09 08:58:41;;;;;;;12.77;6.88;;;9.80;99.90;;;;;;5139261;27;20091;-84
2022/10/09 09:01:16;;;;;;;13.75;7.00;;;9.90;99.90;;;;;;5135507;27;20041;-84
2022/10/09 09:04:13;;;;;;;13.20;6.38;;;10.00;99.90;;;;;;5147330;27;20038;-84
2022/10/09 09:06:41;;;;;;;15.13;6.00;;;10.00;99.90;;;;;;5114941;27;20046;-87
2022/10/09 09:09:40;;;;;;;16.02;6.68;;;10.10;99.90;;;;;;5130074;27;20043;-83
2022/10/09 09:12:08;;;;;;;15.30;6.22;;;10.30;99.90;;;;;;5142331;27;20031;-85
2022/10/09 09:15:04;;;;;;;12.07;5.70;;;10.30;99.90;;;;;;5165125;27;20042;-84
2022/10/09 09:17:43;;;;;;;13.75;5.88;;;10.40;99.90;;;;;;5149065;27;20042;-85
2022/10/09 09:20:15;;;;;;;11.77;5.45;;;10.50;99.90;;;;;;5152507;27;20102;-84
2022/10/09 09:22:46;;;;;;;13.95;5.57;;;10.60;99.90;;;;;;5171991;27;20038;-84
2022/10/09 09:25:23;;;;;;;9.77;5.03;;;10.70;99.90;;;;;;5139234;27;20080;-85
2022/10/09 09:27:52;;;;;;;11.45;5.35;;;10.70;99.90;;;;;;5156365;27;20062;-84
2022/10/09 09:30:32;;;;;;;15.43;5.40;;;11.30;99.90;;;;;;5158061;27;20039;-85
2022/10/09 09:33:17;;;;;;;12.57;5.10;;;10.90;99.90;;;;;;5156975;27;20100;-84
2022/10/09 09:36:18;;;;;;;12.27;5.10;;;11.00;99.90;;;;;;5139120;27;20042;-84
2022/10/09 09:38:44;;;;;;;16.27;5.03;;;11.10;99.90;;;;;;5151969;27;20039;-83
2022/10/09 09:41:10;;;;;;;12.45;4.47;;;11.30;99.90;;;;;;5115635;27;20038;-84
2022/10/09 09:43:36;;;;;;;12.00;4.80;;;11.40;99.90;;;;;;5124332;27;20061;-85
2022/10/09 09:46:02;;;;;;;14.15;5.38;;;11.40;99.90;;;;;;5105686;27;20042;-86
2022/10/09 09:48:33;;;;;;;16.20;4.68;;;11.50;99.90;;;;;;5123280;27;20045;-83
2022/10/09 09:51:00;;;;;;;14.40;5.07;;;11.50;99.90;;;;;;5144709;27;20125;-83
2022/10/09 09:53:26;;;;;;;11.38;5.45;;;11.50;99.90;;;;;;5142796;27;20039;-84
2022/10/09 09:55:53;;;;;;;10.70;5.75;;;11.60;99.90;;;;;;5158998;27;20039;-85
2022/10/09 09:58:20;;;;;;;14.60;5.28;;;11.60;99.90;;;;;;5139163;27;20057;-86
2022/10/09 10:01:00;;;;;;;13.65;4.95;;;11.60;99.90;;;;;;5143843;27;20402;-86
2022/10/09 10:03:26;;;;;;;18.98;5.57;;;11.70;99.90;;;;;;5140488;27;20100;-87
2022/10/09 10:05:52;;;;;;;16.00;4.90;;;11.60;99.90;;;;;;5144097;27;20042;-86
2022/10/09 10:08:29;;;;;;;9.18;4.82;;;11.70;99.90;;;;;;5122009;27;20095;-85
2022/10/09 10:10:57;;;;;;;13.50;4.80;;;11.80;99.90;;;;;;5152317;27;20074;-85
2022/10/09 10:13:38;;;;;;;14.95;5.50;;;11.90;99.90;;;;;;5140088;27;20121;-86
2022/10/09 10:16:06;;;;;;;12.95;5.10;;;11.90;99.90;;;;;;5154320;27;20470;-85
2022/10/09 10:18:38;;;;;;;17.38;5.47;;;12.00;99.90;;;;;;5138071;27;20039;-85
2022/10/09 10:21:23;;;;;;;14.27;4.90;;;12.10;99.90;;;;;;5138644;27;20129;-85
2022/10/09 10:23:59;;;;;;;15.82;5.30;;;12.10;99.90;;;;;;5132956;27;20510;-85
2022/10/09 10:26:37;;;;;;;14.85;5.57;;;12.20;99.90;;;;;;5138543;27;20042;-85
2022/10/09 10:29:10;;;;;;;14.73;5.60;;;12.30;99.90;;;;;;5133003;27;20030;-85
2022/10/09 10:31:42;;;;;;;16.98;5.50;;;12.40;99.90;;;;;;5148165;27;20043;-85
2022/10/09 10:34:36;;;;;;;14.88;6.18;;;12.40;99.90;;;;;;5141668;27;20087;-85
2022/10/09 10:37:22;;;;;;;13.57;6.00;;;12.40;99.90;;;;;;5149479;27;20440;-86
2022/10/09 10:39:57;;;;;;;15.98;6.47;;;12.40;99.90;;;;;;5123160;27;20031;-85
2022/10/09 10:42:42;;;;;;;14.15;5.95;;;12.50;99.90;;;;;;5143279;27;20031;-85
2022/10/09 10:45:16;;;;;;;14.38;5.07;;;12.50;99.90;;;;;;5151170;27;20095;-85
2022/10/09 10:47:48;;;;;;;13.02;4.57;;;12.60;99.90;;;;;;5184213;27;20026;-86
2022/10/09 10:50:15;;;;;;;13.63;4.25;;;12.70;99.90;;;;;;5150233;27;20184;-85
2022/10/09 10:53:00;;;;;;;15.07;4.40;;;12.80;99.90;;;;;;5139515;27;20035;-83
2022/10/09 10:55:39;;;;;;;11.80;3.85;;;12.80;99.90;;;;;;5157581;27;20048;-85
2022/10/09 10:58:35;;;;;;;10.82;3.60;;;12.80;99.90;;;;;;5130569;27;20082;-89
2022/10/09 11:01:16;;;;;;;9.63;3.90;;;12.90;99.90;;;;;;5146552;27;20040;-86
2022/10/09 11:03:51;;;;;;;10.27;3.40;;;12.90;99.90;;;;;;5146608;27;20462;-85
2022/10/09 11:06:38;;;;;;;17.38;3.65;;;13.00;99.90;;;;;;5130580;27;20418;-86
2022/10/09 11:09:19;;;;;;;7.82;3.65;;;12.90;99.90;;;;;;5132803;27;20047;-86
2022/10/09 11:11:58;;;;;;;9.90;4.78;;;13.00;99.90;;;;;;5135517;27;20061;-86
2022/10/09 11:14:40;;;;;;;11.07;4.07;;;13.00;99.90;;;;;;5129700;27;20456;-86
2022/10/09 11:17:38;;;;;;;12.07;3.40;;;13.00;99.90;;;;;;5134773;27;20034;-86
2022/10/09 11:20:14;;;;;;;11.98;3.50;;;13.10;99.90;;;;;;5128354;27;20497;-87
2022/10/09 11:22:48;;;;;;;9.52;3.08;;;13.10;99.90;;;;;;5132522;27;20103;-86
2022/10/09 11:25:41;;;;;;;9.38;3.03;;;13.20;99.90;;;;;;5138598;27;20045;-86
2022/10/09 11:28:14;;;;;;;11.55;3.10;;;13.20;99.90;;;;;;5140495;27;20126;-86
2022/10/09 11:31:03;;;;;;;6.88;2.85;;;13.20;99.90;;;;;;5135605;27;20091;-86
2022/10/09 11:33:37;;;;;;;6.75;2.63;;;13.30;99.90;;;;;;5147650;27;20062;-86
2022/10/09 11:36:15;;;;;;;9.05;2.97;;;13.40;99.90;;;;;;5129088;27;20039;-88
2022/10/09 11:38:50;;;;;;;8.30;2.47;;;13.50;99.90;;;;;;5138512;27;20047;-85
2022/10/09 11:41:17;;;;;;;9.90;2.70;;;13.50;99.90;;;;;;5137656;27;20134;-85
2022/10/09 11:44:06;;;;;;;8.27;2.88;;;13.50;99.90;;;;;;5117542;27;20058;-85
2022/10/09 11:46:53;;;;;;;8.25;2.63;;;13.60;99.90;;;;;;5131772;27;20428;-86
2022/10/09 11:49:41;;;;;;;7.82;2.88;;;13.60;99.90;;;;;;5129414;27;20042;-85
2022/10/09 11:52:38;;;;;;;9.85;3.53;;;13.60;99.90;;;;;;5152160;27;20447;-85
2022/10/09 11:55:19;;;;;;;11.48;3.78;;;13.60;99.90;;;;;;5156824;27;20043;-85
2022/10/09 11:57:45;;;;;;;10.18;3.10;;;13.60;99.90;;;;;;5148304;27;20054;-85
2022/10/09 12:00:11;;;;;;;8.30;2.83;;;13.60;99.90;;;;;;5138686;27;20055;-85
2022/10/09 12:02:39;;;;;;;12.15;3.40;;;13.60;99.90;;;;;;5130920;27;20073;-85
2022/10/09 12:05:33;;;;;;;9.63;3.08;;;13.70;99.90;;;;;;5125527;27;20050;-85
2022/10/09 12:08:31;;;;;;;8.02;3.13;;;13.90;99.90;;;;;;5156031;27;20038;-85
2022/10/09 12:11:06;;;;;;;10.65;3.20;;;14.00;99.90;;;;;;5138957;27;20042;-85
2022/10/09 12:13:38;;;;;;;5.90;3.05;;;14.00;99.90;;;;;;5128649;27;20482;-85
2022/10/09 12:16:05;;;;;;;13.15;2.90;;;14.00;99.90;;;;;;5129924;27;20038;-85
2022/10/09 12:18:39;;;;;;;7.55;3.05;;;14.00;99.90;;;;;;5114453;27;20035;-85
2022/10/09 12:21:17;;;;;;;7.10;3.10;;;14.00;99.90;;;;;;5140410;27;20460;-86
2022/10/09 12:23:46;;;;;;;9.00;3.15;;;14.00;99.90;;;;;;5153559;27;20042;-85
2022/10/09 12:26:13;;;;;;;11.43;3.42;;;14.00;99.90;;;;;;5137264;27;20066;-86
2022/10/09 12:28:49;;;;;;;11.75;3.25;;;14.00;99.90;;;;;;5117645;27;20106;-85
2022/10/09 12:31:30;;;;;;;9.77;3.13;;;14.00;99.90;;;;;;5122737;27;20047;-85
2022/10/09 12:34:14;;;;;;;11.30;4.03;;;14.00;99.90;;;;;;5148629;27;20035;-85
2022/10/09 12:36:39;;;;;;;10.25;3.53;;;14.00;99.90;;;;;;5145450;27;20099;-86
2022/10/09 12:39:32;;;;;;;9.30;3.30;;;14.10;99.90;;;;;;5130210;27;20114;-86
2022/10/09 12:41:58;;;;;;;13.55;3.65;;;14.20;99.90;;;;;;5144683;27;20043;-87
2022/10/09 12:44:38;;;;;;;11.40;3.40;;;14.20;99.90;;;;;;5138729;27;20174;-86
2022/10/09 12:47:14;;;;;;;9.07;3.47;;;14.20;99.90;;;;;;5139165;27;20050;-86
2022/10/09 12:49:40;;;;;;;8.20;3.42;;;14.30;99.90;;;;;;5138376;27;20133;-86
2022/10/09 12:52:15;;;;;;;10.15;3.47;;;14.30;99.90;;;;;;5118643;27;20070;-87
2022/10/09 12:54:43;;;;;;;7.15;3.25;;;14.40;99.90;;;;;;5153367;27;20039;-90
2022/10/09 12:57:13;;;;;;;10.90;3.65;;;14.40;99.90;;;;;;5151053;27;20030;-87
2022/10/09 12:59:39;;;;;;;10.70;3.80;;;14.40;99.90;;;;;;5151389;27;20047;-87
2022/10/09 13:02:11;;;;;;;9.82;3.20;;;14.50;99.90;;;;;;5119027;28;20046;-85
2022/10/09 13:04:37;;;;;;;7.80;3.08;;;14.50;99.90;;;;;;5138082;27;20091;-87
2022/10/09 13:07:15;;;;;;;11.07;3.10;;;14.60;99.90;;;;;;5154762;27;20031;-87